My webcam more information My webcam



Nearby METAR Reports

   
KTOL - Toledo, OH
Updated: May 24 2019 2:52 pm
Overcast  
Overcast  
   Wind: Calm
Wind: Calm
Temperature: 69.8°F
Dew Point: 53.6°F
Humidity: 57%
Barometer: 30.15 inHg
Clouds: Overcast
Visibility: 10 mi
Cloud details: Overcast 5000 ft
KTOL 241852Z 00000KT 10SM OVC050 21/12 A3015 RMK AO2 SLP208 T02110117
KCMH - Columbus, OH
Updated: May 24 2019 2:51 pm
Overcast  
Overcast  
   Wind: East 4.6 mph
Wind: East 4.6 mph
Temperature: 75.2°F
Dew Point: 55.4°F
Humidity: 50%
Barometer: 30.13 inHg
Clouds: Overcast
Visibility: 10 mi
Cloud details: Overcast 4000 ft
KCMH 241851Z 10004KT 10SM OVC040 24/13 A3013 RMK AO2 SLP198 T02390128
KCLE - Cleveland, OH
Updated: May 24 2019 2:51 pm
Overcast  
Overcast  
   Wind: NNE 8.1 mph
Wind: NNE 8.1 mph
Temperature: 71.6°F
Dew Point: 53.6°F
Humidity: 53%
Barometer: 30.15 inHg
Clouds: Overcast
Visibility: 10 mi
Cloud details: Mostly Cloudy 10000 ft,
Mostly Cloudy 19000 ft,
Overcast 25000 ft
KCLE 241851Z 02007KT 10SM BKN100 BKN190 OVC250 22/12 A3015 RMK AO2 SLP207 T02170117
KYNG - Youngstown, OH
Updated: May 24 2019 2:51 pm
Mostly Cloudy  
Mostly Cloudy  
   Wind: varies 4.6 mph
Wind: varies 4.6 mph
Temperature: 73.4°F
Dew Point: 48.2°F
Humidity: 41%
Barometer: 30.13 inHg
Clouds: Mostly Cloudy
Visibility: 10 mi
Cloud details: Few Clouds 10000 ft,
Mostly Cloudy 13000 ft,
Mostly Cloudy 25000 ft
KYNG 241851Z VRB04KT 10SM FEW100 BKN130 BKN250 23/09 A3013 RMK AO2 SLP199 T02330094
KDAY - Dayton, OH
Updated: May 24 2019 2:56 pm
Overcast  
Overcast  
   Wind: East 6.9 mph
Wind: East 6.9 mph
Temperature: 75.2°F
Dew Point: 60.8°F
Humidity: 61%
Barometer: 30.14 inHg
Clouds: Overcast
Visibility: 10 mi
Cloud details: Few Clouds 4600 ft,
Partly Cloudy 15000 ft,
Overcast 25000 ft
KDAY 241856Z 10006KT 10SM FEW046 SCT150 OVC250 24/16 A3014 RMK AO2 SLP200 T02390161
KZZV - Zanesville, OH
Updated: May 24 2019 2:53 pm
Clear  
Clear  
   Wind: varies 3.5 mph
Wind: varies 3.5 mph
Temperature: 75.2°F
Dew Point: 55.4°F
Humidity: 50%
Barometer: 30.13 inHg
Clouds: Clear
Visibility: 10 mi
Cloud details: Clear
KZZV 241853Z AUTO VRB03KT 10SM CLR 24/13 A3013 RMK AO2 SLP198 T02390128

Script developed by  Saratoga-weather.org Adapted for the template by  Weerstation Leuven

You find our weather info also at:

UK Metoffice

WeatherCloud

Weather Underground

Midwestern Weather Network

AWEKAS

Citizen Weather Observer Program (CWOP)

HAMweather, WeatherForYou, PWS Weather

Equipment we use:

Weather-station
Davis VP2

Weather-program
Cumulus

Weather-server
Raspberry Pi

Provider
GoDaddy

Davis VP2

Cumulus

Raspberry Pi

GoDaddy